Time;durP1;ratioP1;P1;durP2;ratioP2;P2;SDS_P1;SDS_P2;PMS_P1;PMS_P2;Temp;Humidity;BMP_temperature;BMP_pressure;BME280_temperature;BME280_humidity;BME280_pressure;Samples;Min_cycle;Max_cycle;Signal;HPM_P1;HPM_P2
2022/05/31 00:00:30;;;;;;;5.50;4.75;;;8.60;99.90;;;;;;5030736;28;20509;-78
2022/05/31 00:02:56;;;;;;;6.60;5.28;;;8.90;99.90;;;;;;5030777;28;20053;-77
2022/05/31 00:05:23;;;;;;;9.85;7.97;;;9.10;99.90;;;;;;5029133;28;20120;-78
2022/05/31 00:07:48;;;;;;;13.43;8.93;;;9.10;99.90;;;;;;5030700;28;20041;-76
2022/05/31 00:10:15;;;;;;;6.45;5.60;;;9.00;99.90;;;;;;5030599;28;20431;-78
2022/05/31 00:12:42;;;;;;;13.15;7.60;;;9.10;99.90;;;;;;5029281;28;20490;-78
2022/05/31 00:15:10;;;;;;;11.63;8.68;;;9.10;99.90;;;;;;5030449;28;20021;-78
2022/05/31 00:17:36;;;;;;;10.57;8.65;;;9.10;99.90;;;;;;5029384;28;20443;-77
2022/05/31 00:20:04;;;;;;;15.27;9.15;;;9.10;99.90;;;;;;5028492;28;20447;-77
2022/05/31 00:22:33;;;;;;;10.82;9.00;;;9.10;99.90;;;;;;5016215;28;20126;-77
2022/05/31 00:24:59;;;;;;;11.10;8.50;;;9.00;99.90;;;;;;5009341;28;20108;-76
2022/05/31 00:27:26;;;;;;;13.18;9.35;;;9.10;99.90;;;;;;5009297;28;20138;-78
2022/05/31 00:29:52;;;;;;;12.02;8.77;;;9.10;99.90;;;;;;5011603;28;20044;-76
2022/05/31 00:32:22;;;;;;;15.95;10.95;;;9.10;99.90;;;;;;5029206;28;20490;-76
2022/05/31 00:34:50;;;;;;;14.07;10.02;;;9.10;99.90;;;;;;5030308;28;20375;-78
2022/05/31 00:37:16;;;;;;;11.45;9.32;;;9.10;99.90;;;;;;5029004;28;20024;-78
2022/05/31 00:39:42;;;;;;;19.52;10.20;;;9.10;99.90;;;;;;5030230;28;20054;-77
2022/05/31 00:42:11;;;;;;;14.57;10.30;;;9.10;99.90;;;;;;5030304;28;20101;-79
2022/05/31 00:44:38;;;;;;;21.00;13.52;;;9.10;99.90;;;;;;5028832;28;20021;-78
2022/05/31 00:47:25;;;;;;;27.58;16.10;;;9.00;99.90;;;;;;5028922;28;20398;-77
2022/05/31 00:49:57;;;;;;;33.97;16.88;;;9.00;99.90;;;;;;5030227;28;20025;-77
2022/05/31 00:52:27;;;;;;;37.25;18.33;;;9.00;99.90;;;;;;5029037;28;20029;-77
2022/05/31 00:55:01;;;;;;;18.95;12.43;;;9.10;99.90;;;;;;5030134;28;20037;-78
2022/05/31 00:57:28;;;;;;;16.50;10.48;;;9.00;99.90;;;;;;5013341;28;20021;-77
2022/05/31 00:59:57;;;;;;;22.42;13.10;;;8.90;99.90;;;;;;5028713;28;20021;-77
2022/05/31 01:02:24;;;;;;;16.58;10.88;;;8.80;99.90;;;;;;5030013;28;20028;-77
2022/05/31 01:04:53;;;;;;;16.50;11.30;;;8.80;99.90;;;;;;5029769;28;20033;-77
2022/05/31 01:07:18;;;;;;;17.50;12.27;;;8.80;99.90;;;;;;5029830;28;20034;-77
2022/05/31 01:09:44;;;;;;;15.90;10.88;;;8.70;99.90;;;;;;5028482;28;20062;-77
2022/05/31 01:12:11;;;;;;;14.20;11.00;;;8.70;99.90;;;;;;5029960;28;20424;-78
2022/05/31 01:14:38;;;;;;;14.65;11.02;;;8.70;99.90;;;;;;5029866;28;20040;-78
2022/05/31 01:17:13;;;;;;;14.98;10.73;;;8.70;99.90;;;;;;5030224;28;20405;-78
2022/05/31 01:19:59;;;;;;;13.05;10.07;;;8.60;99.90;;;;;;5028584;28;20025;-77
2022/05/31 01:22:34;;;;;;;13.45;9.75;;;8.60;99.90;;;;;;5017437;28;20064;-78
2022/05/31 01:25:25;;;;;;;14.18;10.25;;;8.40;99.90;;;;;;5010030;28;20083;-78
2022/05/31 01:28:17;;;;;;;11.38;9.50;;;8.20;99.90;;;;;;5010044;28;20042;-78
2022/05/31 01:30:59;;;;;;;9.25;7.70;;;8.10;99.90;;;;;;5020295;28;20482;-77
2022/05/31 01:33:57;;;;;;;10.15;8.20;;;8.00;99.90;;;;;;5033102;28;20029;-78
2022/05/31 01:36:36;;;;;;;10.82;8.30;;;7.90;99.90;;;;;;5031824;28;20574;-78
2022/05/31 01:39:15;;;;;;;9.65;8.02;;;7.90;99.90;;;;;;5033055;28;20029;-76
2022/05/31 01:41:56;;;;;;;8.73;7.68;;;7.90;99.90;;;;;;5031807;28;20078;-76
2022/05/31 01:44:27;;;;;;;8.50;7.38;;;7.90;99.90;;;;;;5031514;28;20028;-79
2022/05/31 01:46:55;;;;;;;7.97;7.18;;;7.90;99.90;;;;;;5031440;28;20032;-79
2022/05/31 01:49:24;;;;;;;8.68;7.50;;;7.90;99.90;;;;;;5032899;28;20022;-79
2022/05/31 01:51:50;;;;;;;9.93;7.68;;;7.90;99.90;;;;;;5031432;28;20163;-81
2022/05/31 01:54:18;;;;;;;8.95;7.32;;;8.00;99.90;;;;;;5031530;28;20030;-79
2022/05/31 01:56:47;;;;;;;8.52;7.63;;;8.00;99.90;;;;;;5032709;28;20070;-76
2022/05/31 01:59:13;;;;;;;9.10;8.20;;;8.00;99.90;;;;;;5032677;28;20041;-76
2022/05/31 02:01:40;;;;;;;10.88;7.10;;;7.90;99.90;;;;;;5031221;28;20112;-77
2022/05/31 02:04:06;;;;;;;10.30;7.43;;;7.90;99.90;;;;;;5031445;28;20391;-79
2022/05/31 02:06:37;;;;;;;7.55;6.65;;;7.90;99.90;;;;;;5030900;28;20390;-77
2022/05/31 02:09:06;;;;;;;8.05;7.05;;;7.80;99.90;;;;;;5032553;28;20066;-78
2022/05/31 02:11:32;;;;;;;7.50;6.65;;;7.80;99.90;;;;;;5032490;28;20108;-76
2022/05/31 02:14:01;;;;;;;7.13;6.43;;;7.70;99.90;;;;;;5032497;28;20446;-78
2022/05/31 02:16:28;;;;;;;7.70;6.28;;;7.70;99.90;;;;;;5031156;28;20032;-77
2022/05/31 02:21:38;;;;;;;8.55;6.30;;;7.60;99.90;;;;;;5026287;28;20509;-76
2022/05/31 02:24:06;;;;;;;7.00;6.30;;;7.50;99.90;;;;;;5011262;28;20112;-77
2022/05/31 02:26:32;;;;;;;7.10;6.00;;;7.50;99.90;;;;;;5012202;28;20061;-77
2022/05/31 02:28:57;;;;;;;7.72;6.28;;;7.30;99.90;;;;;;5011242;28;20471;-78
2022/05/31 02:31:23;;;;;;;6.90;6.20;;;7.30;99.90;;;;;;5026501;28;20523;-77
2022/05/31 02:33:49;;;;;;;8.07;6.53;;;7.30;99.90;;;;;;5032237;28;20022;-77
2022/05/31 02:36:15;;;;;;;8.40;6.10;;;7.30;99.90;;;;;;5030909;28;20390;-77
2022/05/31 02:38:40;;;;;;;6.68;5.47;;;7.30;99.90;;;;;;5030847;28;20018;-78
2022/05/31 02:41:06;;;;;;;11.77;6.40;;;7.30;99.90;;;;;;5031538;28;20026;-77
2022/05/31 02:43:32;;;;;;;6.80;6.10;;;7.20;99.90;;;;;;5030571;28;20047;-78
2022/05/31 02:45:59;;;;;;;7.32;6.03;;;7.20;99.90;;;;;;5031981;28;20040;-78
2022/05/31 02:48:25;;;;;;;6.30;5.70;;;7.20;99.90;;;;;;5030662;28;20021;-77
2022/05/31 02:50:50;;;;;;;6.53;5.18;;;7.20;99.90;;;;;;5030770;28;20044;-77
2022/05/31 02:53:16;;;;;;;7.45;6.20;;;7.10;99.90;;;;;;5030594;28;20053;-78
2022/05/31 02:55:42;;;;;;;8.63;6.20;;;7.10;99.90;;;;;;5030633;28;20394;-79
2022/05/31 02:58:07;;;;;;;7.50;6.03;;;7.00;99.90;;;;;;5030364;28;20021;-77
2022/05/31 03:00:33;;;;;;;7.20;6.30;;;7.00;99.90;;;;;;5031871;28;20014;-79
2022/05/31 03:02:59;;;;;;;12.43;6.78;;;7.00;99.90;;;;;;5031667;28;20101;-78
2022/05/31 03:05:24;;;;;;;7.78;6.95;;;7.00;99.90;;;;;;5030486;28;20048;-76
2022/05/31 03:07:50;;;;;;;7.47;6.45;;;6.90;99.90;;;;;;5031285;28;20026;-76
2022/05/31 03:10:16;;;;;;;7.13;6.47;;;6.80;99.90;;;;;;5031577;28;20482;-78
2022/05/31 03:12:43;;;;;;;7.65;6.00;;;6.80;99.90;;;;;;5031597;28;20412;-78
2022/05/31 03:15:12;;;;;;;7.38;6.32;;;6.70;99.90;;;;;;5030179;28;20018;-78
2022/05/31 03:17:47;;;;;;;6.63;6.03;;;6.70;99.90;;;;;;5030104;28;20041;-77
2022/05/31 03:20:27;;;;;;;6.53;5.72;;;6.80;99.90;;;;;;5031381;28;20025;-77
2022/05/31 03:23:21;;;;;;;6.97;6.35;;;6.80;99.90;;;;;;5013299;28;20022;-78
2022/05/31 03:25:48;;;;;;;10.57;7.72;;;6.80;99.90;;;;;;5009967;28;20061;-76
2022/05/31 03:28:15;;;;;;;9.20;6.85;;;6.90;99.90;;;;;;5010186;28;20026;-77
2022/05/31 03:30:41;;;;;;;9.07;8.18;;;7.00;99.90;;;;;;5018944;28;20021;-76
2022/05/31 03:33:09;;;;;;;10.68;8.18;;;7.10;99.90;;;;;;5031011;28;20033;-77
2022/05/31 03:35:35;;;;;;;7.40;6.70;;;7.40;99.90;;;;;;5029883;28;20018;-77
2022/05/31 03:38:01;;;;;;;7.20;6.22;;;7.60;99.90;;;;;;5031060;28;20375;-79
2022/05/31 03:43:10;;;;;;;7.82;6.90;;;8.10;99.90;;;;;;5031183;28;20040;-76
2022/05/31 03:45:38;;;;;;;5.75;5.20;;;8.30;99.90;;;;;;5029804;28;20022;-77
2022/05/31 03:48:05;;;;;;;6.20;5.25;;;8.50;99.90;;;;;;5030980;28;20077;-77
2022/05/31 03:50:31;;;;;;;5.55;5.00;;;8.70;99.90;;;;;;5030948;28;20030;-76
2022/05/31 03:52:56;;;;;;;5.85;4.95;;;8.90;99.90;;;;;;5030028;28;20393;-76
2022/05/31 03:55:22;;;;;;;6.38;4.78;;;9.10;99.90;;;;;;5030555;28;20021;-77
2022/05/31 03:57:49;;;;;;;5.78;5.18;;;9.30;99.90;;;;;;5029555;28;20408;-77
2022/05/31 04:00:16;;;;;;;5.88;5.28;;;9.40;99.90;;;;;;5030849;28;20397;-77
2022/05/31 04:02:42;;;;;;;5.53;5.00;;;9.50;99.90;;;;;;5030625;28;20108;-77
2022/05/31 04:05:07;;;;;;;5.05;4.55;;;9.70;99.90;;;;;;5030553;28;20104;-77
2022/05/31 04:07:34;;;;;;;9.50;6.00;;;9.80;99.90;;;;;;5030801;28;20033;-77
2022/05/31 04:10:03;;;;;;;5.18;4.68;;;10.00;99.90;;;;;;5029387;28;20030;-79
2022/05/31 04:12:38;;;;;;;5.70;5.10;;;10.10;99.90;;;;;;5029361;28;20033;-78
2022/05/31 04:15:05;;;;;;;5.43;4.90;;;10.30;99.90;;;;;;5029394;28;20021;-77
2022/05/31 04:17:31;;;;;;;7.93;6.65;;;10.50;99.90;;;;;;5028820;28;20048;-77
2022/05/31 04:19:57;;;;;;;9.57;6.65;;;10.60;99.90;;;;;;5030555;28;20033;-77
2022/05/31 04:22:23;;;;;;;8.60;7.07;;;10.80;99.90;;;;;;5016282;28;20026;-78
2022/05/31 04:24:53;;;;;;;11.35;6.63;;;10.90;99.90;;;;;;5010763;28;20067;-78
2022/05/31 04:27:18;;;;;;;10.75;6.10;;;11.00;99.90;;;;;;5009413;28;20103;-77
2022/05/31 04:29:44;;;;;;;9.23;5.82;;;11.20;99.90;;;;;;5010591;28;20391;-78
2022/05/31 04:32:14;;;;;;;9.77;7.10;;;11.30;99.90;;;;;;5028884;28;20394;-77
2022/05/31 04:34:40;;;;;;;7.15;6.45;;;11.40;99.90;;;;;;5029931;28;20082;-76
2022/05/31 04:37:06;;;;;;;10.15;7.22;;;11.40;99.90;;;;;;5029141;28;20068;-77
2022/05/31 04:39:32;;;;;;;12.27;8.68;;;11.50;99.90;;;;;;5030174;28;20021;-77
2022/05/31 04:41:57;;;;;;;19.70;11.27;;;11.60;99.90;;;;;;5030397;28;20028;-77
2022/05/31 04:44:23;;;;;;;11.60;8.20;;;11.70;99.90;;;;;;5030205;28;20026;-77
2022/05/31 04:46:49;;;;;;;10.52;7.13;;;11.80;99.90;;;;;;5028978;28;20082;-78
2022/05/31 04:49:15;;;;;;;8.38;5.55;;;11.80;99.90;;;;;;5030008;28;20022;-77
2022/05/31 04:51:41;;;;;;;6.60;5.68;;;11.90;99.90;;;;;;5028731;28;20031;-76
2022/05/31 04:54:07;;;;;;;9.02;5.18;;;11.90;99.90;;;;;;5028760;28;20033;-77
2022/05/31 04:56:33;;;;;;;5.80;4.65;;;12.00;99.90;;;;;;5030180;28;20026;-77
2022/05/31 04:59:00;;;;;;;5.15;4.65;;;12.10;99.90;;;;;;5029843;28;20018;-77
2022/05/31 05:01:26;;;;;;;5.90;5.10;;;12.20;99.90;;;;;;5025233;28;20026;-76
2022/05/31 05:03:52;;;;;;;6.22;4.90;;;12.30;99.90;;;;;;5024311;28;20022;-76
2022/05/31 05:06:19;;;;;;;7.43;5.72;;;12.30;99.90;;;;;;5032806;28;20060;-77
2022/05/31 05:08:45;;;;;;;7.57;5.50;;;12.40;99.90;;;;;;5033480;28;20029;-77
2022/05/31 05:11:16;;;;;;;8.43;6.03;;;12.50;99.90;;;;;;5033411;28;20352;-79
2022/05/31 05:13:42;;;;;;;7.20;5.18;;;12.60;99.90;;;;;;5031995;28;20095;-78
2022/05/31 05:16:10;;;;;;;6.78;6.00;;;12.70;99.90;;;;;;5033357;28;20143;-77
2022/05/31 05:18:36;;;;;;;7.03;5.07;;;12.80;99.90;;;;;;5032344;28;20092;-77
2022/05/31 05:21:04;;;;;;;7.97;6.22;;;12.90;99.90;;;;;;5032399;28;20031;-79
2022/05/31 05:23:30;;;;;;;6.80;5.20;;;12.90;99.90;;;;;;5012243;28;20075;-78
2022/05/31 05:25:57;;;;;;;7.07;5.70;;;12.90;99.90;;;;;;5011770;28;20054;-78
2022/05/31 05:31:25;;;;;;;10.23;7.47;;;13.20;99.90;;;;;;5022949;28;20071;-78
2022/05/31 05:33:51;;;;;;;10.63;8.05;;;13.30;99.90;;;;;;5013750;28;20022;-77
2022/05/31 05:36:17;;;;;;;10.77;7.53;;;13.30;99.90;;;;;;5027113;28;20080;-76
2022/05/31 05:38:43;;;;;;;10.25;7.28;;;13.40;99.90;;;;;;5017808;28;20040;-75
2022/05/31 05:41:10;;;;;;;8.98;6.70;;;13.50;99.90;;;;;;5027072;28;20037;-75
2022/05/31 05:43:36;;;;;;;8.35;5.80;;;13.60;99.90;;;;;;5024238;28;20032;-75
2022/05/31 05:46:02;;;;;;;8.75;5.68;;;13.80;99.90;;;;;;5031898;28;20113;-75
2022/05/31 05:48:27;;;;;;;6.07;5.32;;;13.80;99.90;;;;;;5029492;28;20144;-77
2022/05/31 05:50:53;;;;;;;9.50;5.18;;;14.00;99.90;;;;;;5030548;28;20030;-75
2022/05/31 05:53:18;;;;;;;7.47;4.90;;;14.10;99.90;;;;;;5030829;28;20087;-75
2022/05/31 05:55:44;;;;;;;10.13;5.25;;;14.20;94.40;;;;;;5032029;28;20029;-75
2022/05/31 05:58:09;;;;;;;6.13;5.10;;;14.30;93.10;;;;;;5029320;28;20022;-77
2022/05/31 06:00:43;;;;;;;4.88;4.40;;;14.40;87.70;;;;;;5030234;28;20025;-75
2022/05/31 06:03:33;;;;;;;5.38;4.00;;;14.50;90.20;;;;;;5029804;28;20493;-75
2022/05/31 06:05:59;;;;;;;12.05;4.63;;;14.70;89.60;;;;;;5028021;28;20022;-75
2022/05/31 06:08:40;;;;;;;5.03;3.85;;;14.80;85.10;;;;;;5020754;28;20026;-75
2022/05/31 06:11:11;;;;;;;5.85;3.70;;;15.00;84.00;;;;;;5021638;28;20029;-77
2022/05/31 06:13:59;;;;;;;5.18;3.78;;;15.00;77.80;;;;;;5024873;28;20022;-75
2022/05/31 06:16:31;;;;;;;7.30;3.83;;;15.10;77.80;;;;;;5011688;28;20022;-77
2022/05/31 06:19:06;;;;;;;6.72;2.92;;;15.20;77.50;;;;;;5011328;28;20376;-76
2022/05/31 06:21:32;;;;;;;5.60;2.92;;;15.30;73.70;;;;;;5017507;28;20018;-75
2022/05/31 06:24:00;;;;;;;4.18;2.92;;;15.50;76.40;;;;;;5023374;28;20024;-75
2022/05/31 06:26:27;;;;;;;3.17;2.85;;;15.60;75.20;;;;;;5019465;28;20407;-77
2022/05/31 06:28:52;;;;;;;4.18;3.15;;;15.70;67.60;;;;;;5022211;28;20021;-77
2022/05/31 06:31:18;;;;;;;3.72;2.83;;;15.60;68.30;;;;;;5017264;28;20082;-77
2022/05/31 06:33:44;;;;;;;4.65;2.58;;;15.70;69.00;;;;;;5012589;28;20025;-77
2022/05/31 06:36:10;;;;;;;3.63;2.80;;;15.80;67.40;;;;;;5011130;28;20022;-79
2022/05/31 06:38:35;;;;;;;3.45;3.10;;;15.90;68.60;;;;;;5011260;28;20037;-77
2022/05/31 06:41:02;;;;;;;3.00;2.70;;;16.00;69.30;;;;;;5012427;28;20110;-78
2022/05/31 06:43:28;;;;;;;7.97;2.90;;;16.00;68.90;;;;;;5012337;28;20026;-78
2022/05/31 06:45:54;;;;;;;3.50;3.15;;;16.10;69.90;;;;;;5011337;28;20021;-78
2022/05/31 06:48:20;;;;;;;6.10;2.90;;;16.20;71.00;;;;;;5012273;28;20375;-77
2022/05/31 06:50:46;;;;;;;3.10;2.70;;;16.30;70.20;;;;;;5012222;28;20033;-78
2022/05/31 06:58:43;;;;;;;3.42;2.60;;;16.50;70.90;;;;;;5011141;28;20055;-80
2022/05/31 07:01:09;;;;;;;3.50;3.20;;;16.60;67.90;;;;;;5011993;28;20104;-78
2022/05/31 07:03:34;;;;;;;3.90;3.55;;;16.70;68.90;;;;;;5018655;28;20022;-81
2022/05/31 07:06:00;;;;;;;4.05;3.40;;;16.70;69.90;;;;;;5030086;28;20026;-80
2022/05/31 07:08:26;;;;;;;3.15;2.80;;;16.90;67.70;;;;;;5011672;28;20094;-77
2022/05/31 07:10:52;;;;;;;4.55;3.33;;;17.00;67.20;;;;;;5010422;28;20057;-78
2022/05/31 07:13:18;;;;;;;3.35;3.10;;;17.10;66.50;;;;;;5011984;28;20057;-79
2022/05/31 07:15:44;;;;;;;3.63;2.97;;;17.10;64.10;;;;;;5011650;28;20109;-78
2022/05/31 07:18:10;;;;;;;3.15;2.70;;;17.20;64.20;;;;;;5008099;28;20109;-79
2022/05/31 07:20:35;;;;;;;3.10;2.90;;;17.10;63.10;;;;;;5011798;28;20026;-79
2022/05/31 07:23:01;;;;;;;3.28;2.95;;;17.20;65.10;;;;;;5011546;28;20026;-78
2022/05/31 07:25:27;;;;;;;2.97;2.78;;;17.30;63.70;;;;;;5010987;28;20042;-76
2022/05/31 07:27:52;;;;;;;4.18;3.17;;;17.50;65.20;;;;;;5011147;28;20041;-76
2022/05/31 07:30:18;;;;;;;3.45;2.58;;;17.70;64.10;;;;;;5018113;28;20026;-78
2022/05/31 07:32:43;;;;;;;2.97;2.63;;;17.90;62.70;;;;;;5031314;28;20079;-77
2022/05/31 07:35:09;;;;;;;4.65;3.88;;;18.00;59.50;;;;;;5029811;28;20029;-79
2022/05/31 07:37:35;;;;;;;4.25;3.25;;;18.20;59.70;;;;;;5031221;28;20025;-77
2022/05/31 07:40:02;;;;;;;5.07;3.15;;;18.30;60.10;;;;;;5031098;28;20133;-77
2022/05/31 07:42:28;;;;;;;3.15;2.85;;;18.20;59.30;;;;;;5029775;28;20025;-77
2022/05/31 07:44:55;;;;;;;3.65;2.80;;;18.50;58.80;;;;;;5030143;28;20022;-77
2022/05/31 07:47:22;;;;;;;4.00;2.88;;;18.60;56.30;;;;;;5028760;28;20457;-77
2022/05/31 07:49:48;;;;;;;4.20;2.75;;;18.70;57.50;;;;;;5028619;28;20026;-77
2022/05/31 07:52:14;;;;;;;2.30;2.10;;;18.90;56.00;;;;;;5029987;28;20032;-79
2022/05/31 07:54:40;;;;;;;2.13;1.90;;;18.90;50.60;;;;;;5028650;28;20112;-77
2022/05/31 07:57:06;;;;;;;1.90;1.70;;;18.90;49.60;;;;;;5029836;28;20098;-77
2022/05/31 07:59:33;;;;;;;2.50;2.00;;;18.90;50.20;;;;;;5029400;28;20036;-77
2022/05/31 08:01:59;;;;;;;1.45;1.45;;;18.90;49.30;;;;;;5029768;28;20105;-78
2022/05/31 08:04:24;;;;;;;2.10;1.17;;;18.90;47.00;;;;;;5031020;28;20136;-78
2022/05/31 08:06:51;;;;;;;1.63;1.52;;;19.00;47.10;;;;;;5029539;28;20040;-77
2022/05/31 08:09:17;;;;;;;1.92;1.63;;;19.10;45.80;;;;;;5030903;28;20034;-79
2022/05/31 08:11:43;;;;;;;1.83;1.70;;;19.20;46.70;;;;;;5029577;28;20410;-79
2022/05/31 08:14:09;;;;;;;2.42;1.83;;;19.30;48.50;;;;;;5030861;28;20100;-77
2022/05/31 08:16:34;;;;;;;2.40;1.75;;;19.40;47.10;;;;;;5030868;28;20030;-79
2022/05/31 08:19:01;;;;;;;2.13;1.90;;;19.50;47.70;;;;;;5029474;28;20474;-77
2022/05/31 08:21:31;;;;;;;2.05;1.90;;;19.60;47.40;;;;;;5023528;28;20486;-77
2022/05/31 08:23:59;;;;;;;2.50;2.10;;;19.70;46.50;;;;;;5009716;28;20030;-77
2022/05/31 08:26:25;;;;;;;3.60;2.28;;;19.60;46.50;;;;;;5009430;28;20407;-79
2022/05/31 08:28:51;;;;;;;3.72;2.22;;;19.50;47.40;;;;;;5010852;28;20033;-77
2022/05/31 08:31:22;;;;;;;2.53;2.00;;;19.30;47.10;;;;;;5024627;28;20026;-77
2022/05/31 08:33:47;;;;;;;2.10;1.90;;;19.40;49.40;;;;;;5029271;28;20036;-77
2022/05/31 08:36:13;;;;;;;3.40;2.25;;;19.10;48.00;;;;;;5030461;28;20029;-79
2022/05/31 08:38:40;;;;;;;3.08;2.10;;;19.10;49.80;;;;;;5029299;28;20022;-78
2022/05/31 08:41:14;;;;;;;2.33;2.08;;;19.40;49.80;;;;;;5028426;28;20033;-79
2022/05/31 08:44:14;;;;;;;2.42;2.22;;;19.70;50.60;;;;;;5030498;28;20130;-77
2022/05/31 08:46:39;;;;;;;2.58;2.28;;;19.80;48.50;;;;;;5031949;28;20053;-78
2022/05/31 08:49:18;;;;;;;3.08;2.28;;;20.00;47.30;;;;;;5029214;28;20026;-79
2022/05/31 08:52:03;;;;;;;2.58;2.22;;;19.90;47.40;;;;;;5029166;28;20499;-79
2022/05/31 08:57:55;;;;;;;5.28;2.28;;;20.40;47.30;;;;;;5017247;28;20056;-79
2022/05/31 09:00:27;;;;;;;2.97;2.25;;;20.70;45.70;;;;;;5030407;28;20071;-79
2022/05/31 09:02:56;;;;;;;2.80;2.60;;;20.80;46.20;;;;;;5028978;28;20382;-79
2022/05/31 09:05:24;;;;;;;2.28;1.88;;;20.80;45.90;;;;;;5030115;28;20026;-80
2022/05/31 09:08:04;;;;;;;3.13;2.40;;;21.00;46.40;;;;;;5028654;28;20033;-79
2022/05/31 09:10:51;;;;;;;3.92;2.30;;;20.80;45.90;;;;;;5029923;28;20026;-79
2022/05/31 09:13:36;;;;;;;3.17;2.22;;;21.00;46.70;;;;;;5030142;28;20031;-79
2022/05/31 09:16:28;;;;;;;2.92;2.20;;;21.10;46.60;;;;;;5028870;28;20029;-77
2022/05/31 09:19:00;;;;;;;2.93;2.10;;;21.30;47.20;;;;;;5030074;28;20028;-80
2022/05/31 09:21:32;;;;;;;3.42;2.17;;;21.10;44.50;;;;;;5021884;28;20433;-77
2022/05/31 09:23:58;;;;;;;5.55;2.65;;;20.90;43.80;;;;;;5010160;28;20082;-80
2022/05/31 09:26:58;;;;;;;2.72;2.42;;;20.90;44.10;;;;;;5009974;28;20487;-79
2022/05/31 09:29:33;;;;;;;2.08;1.98;;;20.90;45.30;;;;;;5010173;28;20049;-78
2022/05/31 09:32:02;;;;;;;4.15;2.92;;;20.70;46.60;;;;;;5028524;28;20060;-78
2022/05/31 09:34:49;;;;;;;2.30;2.10;;;20.80;47.40;;;;;;5028506;28;20071;-77
2022/05/31 09:37:34;;;;;;;2.75;2.28;;;20.60;49.00;;;;;;5028610;28;20436;-77
2022/05/31 09:40:32;;;;;;;2.88;2.55;;;20.20;47.30;;;;;;5029791;28;20090;-77
2022/05/31 09:43:39;;;;;;;2.65;2.45;;;19.90;47.70;;;;;;5028502;28;20053;-75
2022/05/31 09:46:27;;;;;;;3.30;2.53;;;19.70;48.80;;;;;;5029666;28;20034;-80
2022/05/31 09:48:53;;;;;;;5.65;2.40;;;19.50;49.00;;;;;;5029638;28;20025;-77
2022/05/31 09:51:43;;;;;;;2.38;2.17;;;19.40;48.10;;;;;;5029685;28;20030;-77
2022/05/31 09:57:06;;;;;;;2.85;2.40;;;20.10;46.80;;;;;;5033055;28;20059;-80
2022/05/31 09:59:35;;;;;;;5.45;2.65;;;20.20;45.80;;;;;;5031400;28;20022;-79
2022/05/31 10:02:32;;;;;;;2.92;2.28;;;20.40;49.60;;;;;;5032881;28;20026;-77
2022/05/31 10:05:23;;;;;;;2.45;2.25;;;20.30;48.80;;;;;;5032983;28;20030;-79
2022/05/31 10:07:49;;;;;;;4.00;2.28;;;20.20;46.50;;;;;;5032773;28;20135;-80
2022/05/31 10:10:27;;;;;;;2.50;2.30;;;20.50;48.40;;;;;;5031512;28;20021;-79
2022/05/31 10:13:00;;;;;;;3.20;2.53;;;20.40;47.90;;;;;;5031315;28;20021;-78
2022/05/31 10:15:43;;;;;;;2.83;2.58;;;20.20;48.30;;;;;;5032659;28;20134;-80
2022/05/31 10:18:12;;;;;;;2.78;2.38;;;20.10;49.10;;;;;;5032069;28;20025;-79
2022/05/31 10:20:52;;;;;;;4.47;2.50;;;19.90;48.40;;;;;;5030372;28;20049;-77
2022/05/31 10:23:22;;;;;;;3.05;2.75;;;19.80;48.90;;;;;;5012736;28;20029;-80
2022/05/31 10:25:54;;;;;;;2.72;2.53;;;19.70;46.30;;;;;;5012609;28;20515;-80
2022/05/31 10:28:42;;;;;;;3.03;2.20;;;19.90;47.20;;;;;;5012550;28;20069;-80
2022/05/31 10:31:34;;;;;;;2.90;2.50;;;19.80;46.90;;;;;;5027224;28;20022;-79
2022/05/31 10:34:04;;;;;;;3.05;2.25;;;19.80;47.10;;;;;;5032290;28;20047;-79
2022/05/31 10:36:32;;;;;;;4.50;2.28;;;19.70;46.50;;;;;;5032654;28;20018;-77
2022/05/31 10:39:08;;;;;;;3.00;2.55;;;19.70;46.10;;;;;;5032234;28;20026;-77
2022/05/31 10:41:35;;;;;;;2.63;2.42;;;20.10;45.80;;;;;;5031202;28;20509;-78
2022/05/31 10:44:21;;;;;;;4.32;2.55;;;20.30;47.80;;;;;;5030887;28;20017;-80
2022/05/31 10:46:51;;;;;;;2.88;2.63;;;20.20;46.90;;;;;;5030806;28;20041;-77
2022/05/31 10:49:20;;;;;;;3.60;2.63;;;20.60;47.30;;;;;;5030747;28;20395;-80
2022/05/31 10:52:12;;;;;;;4.30;2.33;;;20.90;48.80;;;;;;5032024;28;20028;-77
2022/05/31 10:55:15;;;;;;;2.58;2.10;;;21.30;47.00;;;;;;5030597;28;20129;-79
2022/05/31 10:57:58;;;;;;;2.83;2.30;;;21.00;44.00;;;;;;5032026;28;20154;-77
2022/05/31 11:00:34;;;;;;;5.38;2.28;;;21.30;45.10;;;;;;5030501;28;20037;-75
2022/05/31 11:03:21;;;;;;;3.45;2.38;;;21.60;44.20;;;;;;5030091;28;20021;-77
2022/05/31 11:06:09;;;;;;;3.10;2.00;;;22.00;44.20;;;;;;5030695;28;20017;-75
2022/05/31 11:11:54;;;;;;;4.70;3.00;;;22.30;43.70;;;;;;5031596;28;20078;-75
2022/05/31 11:14:45;;;;;;;4.10;3.28;;;22.20;43.40;;;;;;5031681;28;20026;-78
2022/05/31 11:17:49;;;;;;;3.35;2.83;;;21.60;43.10;;;;;;5026799;28;20030;-75
2022/05/31 11:20:41;;;;;;;6.45;3.28;;;21.70;44.30;;;;;;5030162;28;20479;-77
2022/05/31 11:23:30;;;;;;;8.25;3.55;;;22.00;45.40;;;;;;5011789;28;20058;-77
2022/05/31 11:26:04;;;;;;;5.43;3.67;;;22.00;43.90;;;;;;5010259;28;20058;-77
2022/05/31 11:28:59;;;;;;;4.88;3.30;;;21.60;43.00;;;;;;5012302;28;20374;-78
2022/05/31 11:31:57;;;;;;;3.97;3.60;;;21.70;41.60;;;;;;5028956;28;20071;-78
2022/05/31 11:34:53;;;;;;;4.75;2.88;;;21.70;42.70;;;;;;5035209;28;20041;-77
2022/05/31 11:37:56;;;;;;;3.70;3.33;;;21.80;43.90;;;;;;5029914;28;20031;-78
2022/05/31 11:40:43;;;;;;;3.90;3.50;;;21.40;41.70;;;;;;5029592;28;20586;-77
2022/05/31 11:43:46;;;;;;;3.40;3.10;;;21.40;42.80;;;;;;5030976;28;20017;-78
2022/05/31 11:46:12;;;;;;;4.40;3.13;;;21.20;44.30;;;;;;5029576;28;20053;-75
2022/05/31 11:48:54;;;;;;;5.65;3.45;;;21.20;46.00;;;;;;5029903;28;20446;-75
2022/05/31 11:51:37;;;;;;;3.38;3.03;;;21.10;46.50;;;;;;5029959;28;20075;-75
2022/05/31 11:54:31;;;;;;;4.65;3.53;;;21.40;46.50;;;;;;5029627;28;20487;-77
2022/05/31 11:57:29;;;;;;;5.75;3.45;;;21.10;44.50;;;;;;5029021;28;20037;-75
2022/05/31 12:00:11;;;;;;;4.80;3.00;;;21.30;44.20;;;;;;5030449;28;20490;-78
2022/05/31 12:02:45;;;;;;;6.03;2.92;;;21.90;45.30;;;;;;5030400;28;20049;-78
2022/05/31 12:05:17;;;;;;;3.75;3.03;;;22.20;46.10;;;;;;5022897;28;20028;-78
2022/05/31 12:08:11;;;;;;;3.67;3.35;;;22.50;45.40;;;;;;5023565;28;20038;-76
2022/05/31 12:11:01;;;;;;;2.92;2.67;;;22.40;44.10;;;;;;5009415;28;20118;-75
2022/05/31 12:13:28;;;;;;;2.88;2.47;;;22.40;43.30;;;;;;5022139;28;20474;-75
2022/05/31 12:15:54;;;;;;;3.30;2.85;;;22.50;44.30;;;;;;5022508;28;20045;-77
2022/05/31 12:18:44;;;;;;;3.20;3.00;;;22.40;43.60;;;;;;5024854;28;20026;-75
2022/05/31 12:21:27;;;;;;;3.40;3.10;;;22.50;42.70;;;;;;5019424;28;20518;-75
2022/05/31 12:24:26;;;;;;;2.65;2.45;;;22.50;42.00;;;;;;5043817;28;20073;-75
2022/05/31 12:26:54;;;;;;;3.33;2.85;;;22.60;42.60;;;;;;5019631;28;20081;-75
2022/05/31 12:29:29;;;;;;;3.92;3.03;;;22.50;42.00;;;;;;5025684;28;20060;-75
2022/05/31 12:32:32;;;;;;;4.10;3.05;;;22.00;42.10;;;;;;5021956;28;20507;-75
2022/05/31 12:35:00;;;;;;;4.28;2.50;;;21.80;42.40;;;;;;5018260;28;20026;-75
2022/05/31 12:37:26;;;;;;;3.15;2.30;;;22.00;42.90;;;;;;5024335;28;20033;-75
2022/05/31 12:40:20;;;;;;;2.95;2.67;;;22.20;42.90;;;;;;5024987;28;20022;-75
2022/05/31 12:42:48;;;;;;;2.70;2.50;;;22.30;41.80;;;;;;5019385;28;20441;-75
2022/05/31 12:45:37;;;;;;;3.00;2.70;;;22.60;41.30;;;;;;5016303;28;20029;-75
2022/05/31 12:48:23;;;;;;;2.80;2.60;;;22.30;42.20;;;;;;5009347;28;20042;-77
2022/05/31 12:50:54;;;;;;;5.63;2.40;;;22.00;42.30;;;;;;5022432;28;20471;-76
2022/05/31 12:53:37;;;;;;;5.63;2.78;;;21.80;42.00;;;;;;5020177;28;20033;-76
2022/05/31 12:56:05;;;;;;;3.22;2.60;;;22.00;42.90;;;;;;5015398;28;20025;-75
2022/05/31 12:58:43;;;;;;;3.15;2.85;;;22.20;41.50;;;;;;5014176;28;20033;-75
2022/05/31 13:01:11;;;;;;;3.15;2.65;;;22.50;42.60;;;;;;5009044;28;20030;-79
2022/05/31 13:03:43;;;;;;;3.88;3.17;;;22.50;41.60;;;;;;5022550;28;20135;-76
2022/05/31 13:06:57;;;;;;;5.10;2.50;;;22.80;42.30;;;;;;5027293;28;20506;-78
2022/05/31 13:09:23;;;;;;;2.92;2.40;;;22.70;42.70;;;;;;5021739;28;20034;-78
2022/05/31 13:21:03;;;;;;;3.85;2.85;;;22.00;46.10;;;;;;5015873;28;20097;-79
2022/05/31 13:23:38;;;;;;;3.38;3.08;;;21.80;45.20;;;;;;5014202;28;20042;-75
2022/05/31 13:26:14;;;;;;;3.30;2.97;;;21.80;45.50;;;;;;5029372;28;20041;-78
2022/05/31 13:28:56;;;;;;;3.75;3.28;;;21.80;44.70;;;;;;5011899;28;20036;-75
2022/05/31 13:31:24;;;;;;;5.32;2.95;;;21.80;45.60;;;;;;5016116;28;20018;-80
2022/05/31 13:34:04;;;;;;;3.22;3.00;;;21.70;45.90;;;;;;5026404;28;20029;-78
2022/05/31 13:36:42;;;;;;;2.80;2.50;;;21.70;45.50;;;;;;5023618;28;20428;-78
2022/05/31 13:39:10;;;;;;;3.33;3.03;;;21.60;45.10;;;;;;5048215;27;20078;-75
2022/05/31 13:41:50;;;;;;;4.35;2.92;;;21.70;44.70;;;;;;5031473;28;20022;-78
2022/05/31 13:44:28;;;;;;;3.88;3.50;;;21.70;46.00;;;;;;5031459;28;20052;-78
2022/05/31 13:47:00;;;;;;;3.10;2.90;;;21.70;46.40;;;;;;5030563;28;20095;-75